Time;durP1;ratioP1;P1;durP2;ratioP2;P2;SDS_P1;SDS_P2;PMS_P1;PMS_P2;Temp;Humidity;BMP_temperature;BMP_pressure;BME280_temperature;BME280_humidity;BME280_pressure;Samples;Min_cycle;Max_cycle;Signal;HPM_P1;HPM_P2
2023/06/17 00:00:21;;;;;;;44.75;27.40;;;15.90;99.90;;;;;;5097764;28;20024;-65
2023/06/17 00:02:47;;;;;;;43.90;28.60;;;15.80;99.90;;;;;;5097309;28;20020;-65
2023/06/17 00:05:13;;;;;;;42.88;26.48;;;15.90;99.90;;;;;;5097552;28;20542;-65
2023/06/17 00:07:39;;;;;;;39.53;28.27;;;15.90;99.90;;;;;;5097597;28;20060;-65
2023/06/17 00:10:06;;;;;;;42.95;27.27;;;15.90;99.90;;;;;;5097475;28;20107;-65
2023/06/17 00:12:33;;;;;;;44.72;27.70;;;15.90;99.90;;;;;;5097321;28;20035;-65
2023/06/17 00:15:02;;;;;;;49.70;29.13;;;15.90;99.90;;;;;;5097511;28;20028;-65
2023/06/17 00:17:31;;;;;;;48.35;31.55;;;15.90;99.90;;;;;;5097452;28;20032;-65
2023/06/17 00:19:58;;;;;;;51.85;32.38;;;15.90;99.90;;;;;;5097239;28;20103;-65
2023/06/17 00:22:25;;;;;;;51.40;32.65;;;15.90;99.90;;;;;;5097190;28;20032;-65
2023/06/17 00:24:53;;;;;;;51.80;32.40;;;15.90;99.90;;;;;;5097353;28;20028;-65
2023/06/17 00:27:19;;;;;;;48.47;29.63;;;15.90;99.90;;;;;;5097156;28;20097;-65
2023/06/17 00:29:45;;;;;;;46.75;29.30;;;15.90;99.90;;;;;;5097215;28;20056;-65
2023/06/17 00:32:11;;;;;;;47.78;28.60;;;15.90;99.90;;;;;;5078992;28;20488;-65
2023/06/17 00:34:37;;;;;;;48.58;29.85;;;15.80;99.90;;;;;;5096902;28;20458;-65
2023/06/17 00:37:03;;;;;;;47.80;29.85;;;15.80;99.90;;;;;;5095653;28;20044;-65
2023/06/17 00:39:29;;;;;;;52.17;29.25;;;15.80;99.90;;;;;;5097025;28;20077;-65
2023/06/17 00:42:00;;;;;;;43.50;29.42;;;15.70;99.90;;;;;;5096934;28;20036;-65
2023/06/17 00:44:26;;;;;;;48.67;29.23;;;15.70;99.90;;;;;;5096848;28;20416;-65
2023/06/17 00:46:53;;;;;;;52.28;31.23;;;15.70;99.90;;;;;;5096893;28;20076;-65
2023/06/17 00:49:22;;;;;;;43.13;29.98;;;15.70;99.90;;;;;;5096872;28;20110;-65
2023/06/17 00:51:48;;;;;;;57.45;30.80;;;15.70;99.90;;;;;;5096914;28;20432;-65
2023/06/17 00:54:15;;;;;;;46.55;29.90;;;15.70;99.90;;;;;;5078535;28;20040;-65
2023/06/17 00:56:42;;;;;;;43.63;28.02;;;15.70;99.90;;;;;;5096733;28;20025;-65
2023/06/17 00:59:09;;;;;;;40.72;27.38;;;15.70;99.90;;;;;;5096740;28;20020;-65
2023/06/17 01:01:36;;;;;;;44.42;27.65;;;15.70;99.90;;;;;;5078347;28;20031;-65
2023/06/17 01:04:06;;;;;;;54.08;29.65;;;15.70;99.90;;;;;;5096535;28;20032;-65
2023/06/17 01:06:50;;;;;;;44.17;28.75;;;15.70;99.90;;;;;;5096707;28;20032;-65
2023/06/17 01:09:23;;;;;;;44.65;27.40;;;15.60;99.90;;;;;;5078052;28;20028;-65
2023/06/17 01:11:55;;;;;;;44.88;28.58;;;15.60;99.90;;;;;;5078390;28;20088;-65
2023/06/17 01:14:21;;;;;;;45.80;29.88;;;15.60;99.90;;;;;;5096357;28;20027;-65
2023/06/17 01:16:50;;;;;;;44.17;28.63;;;15.60;99.90;;;;;;5096305;28;20024;-65
2023/06/17 01:19:24;;;;;;;44.78;26.65;;;15.50;99.90;;;;;;5096389;28;20469;-65
2023/06/17 01:21:51;;;;;;;46.75;27.55;;;15.50;99.90;;;;;;5078030;28;20054;-65
2023/06/17 01:24:27;;;;;;;57.20;31.02;;;15.50;99.90;;;;;;5096192;28;20016;-65
2023/06/17 01:26:57;;;;;;;55.88;31.52;;;15.50;99.90;;;;;;5077944;28;20032;-65
2023/06/17 01:29:23;;;;;;;50.05;30.38;;;15.50;99.90;;;;;;5096068;28;20492;-65
2023/06/17 01:31:57;;;;;;;39.15;26.92;;;15.50;99.90;;;;;;5096182;28;20031;-65
2023/06/17 01:34:42;;;;;;;44.60;29.20;;;15.40;99.90;;;;;;5077785;28;20077;-65
2023/06/17 01:37:11;;;;;;;55.30;28.65;;;15.50;99.90;;;;;;5095656;28;20043;-65
2023/06/17 01:39:39;;;;;;;52.25;29.58;;;15.50;99.90;;;;;;5095889;28;20028;-64
2023/06/17 01:42:13;;;;;;;63.15;30.40;;;15.50;99.90;;;;;;5095916;28;20096;-64
2023/06/17 01:44:40;;;;;;;50.53;30.20;;;15.40;99.90;;;;;;5077404;28;20389;-65
2023/06/17 01:47:09;;;;;;;48.13;28.48;;;15.40;99.90;;;;;;5096276;28;20039;-65
2023/06/17 01:49:37;;;;;;;58.53;31.15;;;15.30;99.90;;;;;;5077191;28;20385;-65
2023/06/17 01:52:05;;;;;;;60.10;31.65;;;15.30;99.90;;;;;;5077294;28;20044;-65
2023/06/17 01:54:30;;;;;;;81.97;32.70;;;15.30;99.90;;;;;;5077421;28;20035;-64
2023/06/17 01:56:56;;;;;;;78.72;33.00;;;15.30;99.90;;;;;;5077405;28;20024;-65
2023/06/17 01:59:23;;;;;;;59.05;31.77;;;15.30;99.90;;;;;;5060628;28;20035;-65
2023/06/17 02:01:49;;;;;;;93.45;36.17;;;15.30;99.90;;;;;;5060556;28;20020;-65
2023/06/17 02:04:15;;;;;;;109.57;39.25;;;15.40;99.90;;;;;;5077190;28;20035;-65
2023/06/17 02:06:41;;;;;;;93.95;39.67;;;15.40;99.90;;;;;;5076983;28;20028;-65
2023/06/17 02:09:08;;;;;;;116.32;40.05;;;15.40;99.90;;;;;;5095213;28;20072;-64
2023/06/17 02:11:34;;;;;;;95.82;39.95;;;15.40;99.90;;;;;;5077073;28;20351;-65
2023/06/17 02:14:00;;;;;;;76.35;34.40;;;15.50;99.90;;;;;;5076787;28;20084;-65
2023/06/17 02:16:26;;;;;;;57.33;32.33;;;15.40;99.90;;;;;;5095083;28;20028;-65
2023/06/17 02:18:53;;;;;;;65.88;33.00;;;15.50;99.90;;;;;;5076936;28;20058;-65
2023/06/17 02:21:19;;;;;;;55.47;32.08;;;15.50;99.90;;;;;;5095020;28;20509;-65
2023/06/17 02:23:49;;;;;;;56.47;32.58;;;15.50;99.90;;;;;;5077023;28;20032;-64
2023/06/17 02:26:18;;;;;;;63.97;33.22;;;15.50;99.90;;;;;;5095001;28;20036;-65
2023/06/17 02:28:44;;;;;;;58.50;31.60;;;15.50;99.90;;;;;;5094898;28;20036;-65
2023/06/17 02:31:10;;;;;;;54.25;29.33;;;15.50;99.90;;;;;;5077005;28;20032;-65
2023/06/17 02:33:36;;;;;;;58.63;33.10;;;15.50;99.90;;;;;;5076568;28;20032;-65
2023/06/17 02:36:03;;;;;;;50.13;29.15;;;15.50;99.90;;;;;;5094821;28;20036;-65
2023/06/17 02:38:29;;;;;;;68.13;32.33;;;15.50;99.90;;;;;;5076525;28;20109;-64
2023/06/17 02:40:55;;;;;;;173.15;53.42;;;15.50;99.90;;;;;;5076591;28;20107;-65
2023/06/17 02:43:21;;;;;;;156.45;49.55;;;15.50;99.90;;;;;;5094738;28;20043;-65
2023/06/17 02:45:47;;;;;;;149.65;47.67;;;15.50;99.90;;;;;;5076675;28;20032;-65
2023/06/17 02:48:13;;;;;;;221.13;68.05;;;15.50;99.90;;;;;;5094615;28;20124;-65
2023/06/17 02:50:40;;;;;;;205.35;63.13;;;15.60;99.90;;;;;;5094626;28;20028;-65
2023/06/17 02:53:07;;;;;;;227.73;65.88;;;15.60;99.90;;;;;;5094720;28;20028;-65
2023/06/17 02:55:33;;;;;;;218.50;66.85;;;15.50;99.90;;;;;;5076370;28;20558;-65
2023/06/17 02:58:07;;;;;;;197.07;61.78;;;15.50;99.90;;;;;;5076502;28;20024;-65
2023/06/17 03:00:38;;;;;;;188.48;59.85;;;15.50;99.90;;;;;;5075588;28;20397;-65
2023/06/17 03:03:06;;;;;;;180.70;59.38;;;15.60;99.90;;;;;;5094457;28;20103;-65
2023/06/17 03:05:32;;;;;;;185.70;58.75;;;15.50;99.90;;;;;;5076389;28;20024;-65
2023/06/17 03:07:58;;;;;;;167.43;54.03;;;15.50;99.90;;;;;;5076298;28;20032;-65
2023/06/17 03:10:24;;;;;;;145.45;55.35;;;15.60;99.90;;;;;;5075980;28;20058;-65
2023/06/17 03:13:00;;;;;;;137.57;52.85;;;15.60;99.90;;;;;;5076216;28;20179;-65
2023/06/17 03:15:27;;;;;;;125.00;49.40;;;15.60;99.90;;;;;;5076111;28;20039;-65
2023/06/17 03:17:55;;;;;;;122.88;48.97;;;15.70;99.90;;;;;;5076083;28;20138;-65
2023/06/17 03:20:28;;;;;;;118.05;48.63;;;15.60;99.90;;;;;;5094365;28;20031;-65
2023/06/17 03:22:55;;;;;;;140.70;48.78;;;15.50;99.90;;;;;;5094232;28;20039;-65
2023/06/17 03:25:23;;;;;;;127.43;46.60;;;15.50;99.90;;;;;;5076051;28;20056;-65
2023/06/17 03:27:52;;;;;;;110.53;44.35;;;15.40;99.90;;;;;;5094625;28;20042;-65
2023/06/17 03:30:18;;;;;;;102.45;44.47;;;15.40;99.90;;;;;;5094418;28;20032;-65
2023/06/17 03:32:44;;;;;;;104.05;43.28;;;15.40;99.90;;;;;;5076027;28;20035;-65
2023/06/17 03:35:11;;;;;;;112.93;44.17;;;15.40;99.90;;;;;;5075930;28;20075;-65
2023/06/17 03:37:37;;;;;;;125.20;47.47;;;15.40;99.90;;;;;;5075912;28;20458;-65
2023/06/17 03:40:05;;;;;;;120.53;48.30;;;15.40;99.90;;;;;;5094161;28;20028;-65
2023/06/17 03:42:34;;;;;;;160.40;56.30;;;15.50;99.90;;;;;;5076307;28;20089;-65
2023/06/17 03:45:00;;;;;;;158.52;57.85;;;15.50;99.90;;;;;;5094109;28;20024;-65
2023/06/17 03:47:26;;;;;;;178.00;56.92;;;15.40;99.90;;;;;;5076101;28;20058;-65
2023/06/17 03:49:54;;;;;;;167.60;58.08;;;15.40;99.90;;;;;;5076146;28;20097;-65
2023/06/17 03:52:20;;;;;;;221.23;61.35;;;15.40;99.90;;;;;;5092790;28;20036;-65
2023/06/17 03:54:47;;;;;;;319.85;66.82;;;15.40;99.90;;;;;;5075950;28;20035;-65
2023/06/17 03:57:14;;;;;;;402.00;67.45;;;15.40;99.90;;;;;;5075983;28;20051;-65
2023/06/17 03:59:41;;;;;;;325.52;62.28;;;15.40;99.90;;;;;;5075893;28;20024;-65
2023/06/17 04:02:07;;;;;;;216.38;59.63;;;15.20;99.90;;;;;;5075937;28;20031;-65
2023/06/17 04:04:34;;;;;;;174.25;60.15;;;15.40;99.90;;;;;;5075881;28;20038;-65
2023/06/17 04:07:02;;;;;;;270.20;70.43;;;15.40;99.90;;;;;;5075802;28;20123;-65
2023/06/17 04:09:28;;;;;;;194.15;63.90;;;15.50;99.90;;;;;;5075498;28;20533;-64
2023/06/17 04:11:54;;;;;;;253.35;67.93;;;15.50;99.90;;;;;;5095565;28;20119;-65
2023/06/17 04:14:19;;;;;;;218.07;68.45;;;15.50;99.90;;;;;;5079158;28;20034;-65
2023/06/17 04:16:46;;;;;;;225.68;67.30;;;15.50;99.90;;;;;;5079411;28;20024;-65
2023/06/17 04:19:17;;;;;;;229.70;71.78;;;15.50;99.90;;;;;;5079316;28;20024;-65
2023/06/17 04:21:44;;;;;;;251.65;72.38;;;15.50;99.90;;;;;;5097235;28;20024;-65
2023/06/17 04:24:10;;;;;;;249.77;74.18;;;15.50;99.90;;;;;;5079125;28;20400;-65
2023/06/17 04:26:36;;;;;;;262.70;72.88;;;15.60;99.90;;;;;;5097240;28;20427;-65
2023/06/17 04:29:03;;;;;;;230.25;70.35;;;15.60;99.90;;;;;;5078948;28;20028;-65
2023/06/17 04:31:30;;;;;;;241.50;70.93;;;15.60;99.90;;;;;;5079145;28;20058;-65
2023/06/17 04:33:56;;;;;;;229.38;68.53;;;15.60;99.90;;;;;;5078952;28;20043;-65
2023/06/17 04:36:25;;;;;;;199.00;64.63;;;15.60;99.90;;;;;;5078539;28;20132;-65
2023/06/17 04:38:53;;;;;;;191.98;62.13;;;15.70;99.90;;;;;;5078903;28;20031;-65
2023/06/17 04:41:20;;;;;;;172.25;58.20;;;15.80;99.90;;;;;;5078805;28;20020;-65
2023/06/17 04:43:48;;;;;;;168.25;56.30;;;15.80;99.90;;;;;;5078805;28;20052;-65
2023/06/17 04:46:19;;;;;;;151.45;54.95;;;15.90;99.90;;;;;;5078685;28;20040;-65
2023/06/17 04:48:46;;;;;;;143.20;52.85;;;15.90;99.90;;;;;;5078753;28;20024;-65
2023/06/17 04:51:12;;;;;;;132.05;52.30;;;16.00;99.90;;;;;;5096621;28;20460;-65
2023/06/17 04:53:40;;;;;;;120.03;49.03;;;16.10;99.90;;;;;;5078582;28;20062;-65
2023/06/17 04:56:06;;;;;;;116.82;49.95;;;16.10;99.90;;;;;;5078528;28;20429;-65
2023/06/17 04:58:33;;;;;;;124.07;50.05;;;16.20;99.90;;;;;;5078407;28;20024;-65
2023/06/17 05:01:12;;;;;;;101.95;47.03;;;16.20;99.90;;;;;;5078425;28;20031;-65
2023/06/17 05:03:38;;;;;;;104.43;45.78;;;16.20;99.90;;;;;;5078395;28;20036;-65
2023/06/17 05:06:04;;;;;;;97.95;43.50;;;16.30;99.90;;;;;;5078388;28;20028;-65
2023/06/17 05:08:31;;;;;;;90.45;43.33;;;16.30;99.90;;;;;;5078399;28;20024;-65
2023/06/17 05:10:58;;;;;;;75.65;38.03;;;16.40;99.90;;;;;;5077807;28;20031;-65
2023/06/17 05:13:24;;;;;;;74.05;36.10;;;16.50;99.90;;;;;;5078251;28;20058;-65
2023/06/17 05:15:53;;;;;;;78.88;37.42;;;16.50;99.90;;;;;;5078167;28;20032;-65
2023/06/17 05:18:18;;;;;;;78.47;38.78;;;16.50;99.90;;;;;;5077842;28;20390;-65
2023/06/17 05:20:44;;;;;;;77.38;40.42;;;16.50;99.90;;;;;;5078011;28;20438;-65
2023/06/17 05:23:12;;;;;;;74.95;37.83;;;16.60;99.90;;;;;;5077410;28;20477;-65
2023/06/17 05:25:38;;;;;;;73.28;37.60;;;16.60;99.90;;;;;;5077723;28;20055;-65
2023/06/17 05:28:10;;;;;;;60.63;32.88;;;16.70;99.90;;;;;;5077959;28;20032;-65
2023/06/17 05:30:39;;;;;;;58.33;34.05;;;16.70;99.90;;;;;;5077820;28;20032;-65
2023/06/17 05:33:06;;;;;;;61.75;33.35;;;16.70;99.90;;;;;;5077756;28;20061;-64
2023/06/17 05:35:32;;;;;;;53.63;31.08;;;16.80;99.90;;;;;;5077841;28;20378;-64
2023/06/17 05:37:59;;;;;;;54.70;32.08;;;16.90;99.90;;;;;;5074050;28;20048;-64
2023/06/17 05:40:25;;;;;;;61.63;32.70;;;16.90;99.90;;;;;;5074125;28;20043;-64
2023/06/17 05:42:51;;;;;;;51.70;30.45;;;16.90;99.90;;;;;;5074251;28;20028;-64
2023/06/17 05:45:19;;;;;;;50.78;28.10;;;17.00;99.90;;;;;;5074178;28;20036;-65
2023/06/17 05:47:46;;;;;;;46.30;27.55;;;17.00;99.90;;;;;;5075379;28;20068;-64
2023/06/17 05:50:12;;;;;;;43.70;27.80;;;17.10;99.90;;;;;;5074034;28;20040;-64
2023/06/17 05:52:40;;;;;;;38.47;24.67;;;17.20;99.90;;;;;;5073921;28;20024;-64
2023/06/17 05:55:07;;;;;;;36.22;24.63;;;17.20;99.90;;;;;;5073805;28;20102;-64
2023/06/17 05:57:33;;;;;;;40.03;24.10;;;17.30;99.90;;;;;;5073939;28;20028;-64
2023/06/17 05:59:59;;;;;;;41.03;26.15;;;17.30;99.90;;;;;;5073863;28;20031;-64
2023/06/17 06:02:25;;;;;;;41.35;23.60;;;17.40;99.90;;;;;;5073757;28;20120;-64
2023/06/17 06:04:51;;;;;;;42.80;26.38;;;17.60;99.90;;;;;;5075254;28;20056;-64
2023/06/17 06:07:17;;;;;;;49.72;27.95;;;17.60;99.90;;;;;;5073778;28;20035;-64
2023/06/17 06:09:43;;;;;;;56.35;30.50;;;17.80;99.90;;;;;;5074853;28;20517;-64
2023/06/17 06:12:10;;;;;;;59.80;30.20;;;17.80;99.90;;;;;;5073733;28;20029;-64
2023/06/17 06:14:36;;;;;;;49.03;28.23;;;17.90;99.90;;;;;;5073533;28;20029;-64
2023/06/17 06:17:04;;;;;;;54.75;29.05;;;17.90;99.90;;;;;;5073592;28;20386;-64
2023/06/17 06:19:30;;;;;;;61.92;29.00;;;18.10;99.90;;;;;;5073689;28;20082;-64
2023/06/17 06:21:56;;;;;;;61.42;30.13;;;18.20;99.90;;;;;;5073037;28;20021;-64
2023/06/17 06:24:22;;;;;;;68.90;31.67;;;18.30;99.90;;;;;;5073530;28;20389;-64
2023/06/17 06:26:48;;;;;;;57.63;28.25;;;18.30;99.90;;;;;;5073441;28;20020;-64
2023/06/17 06:29:15;;;;;;;50.33;29.00;;;18.40;99.90;;;;;;5073362;28;20044;-64
2023/06/17 06:31:43;;;;;;;51.60;26.35;;;18.60;99.90;;;;;;5073391;28;20051;-64
2023/06/17 06:34:10;;;;;;;62.50;25.58;;;18.80;99.90;;;;;;5073138;28;20036;-64
2023/06/17 06:36:36;;;;;;;46.47;24.15;;;19.00;99.90;;;;;;5075673;28;20035;-64
2023/06/17 06:39:02;;;;;;;39.33;21.75;;;19.20;99.90;;;;;;5076698;28;20024;-64
2023/06/17 06:41:29;;;;;;;43.40;21.98;;;19.30;99.90;;;;;;5076594;28;20024;-64
2023/06/17 06:44:02;;;;;;;42.63;21.35;;;19.40;99.90;;;;;;5076589;28;20035;-64
2023/06/17 06:46:31;;;;;;;47.42;22.40;;;19.60;99.90;;;;;;5094770;28;20047;-64
2023/06/17 06:48:58;;;;;;;39.90;20.70;;;19.90;99.90;;;;;;5076489;28;20096;-64
2023/06/17 06:51:26;;;;;;;41.45;21.15;;;20.00;99.90;;;;;;5076472;28;20032;-64
2023/06/17 06:53:52;;;;;;;43.72;21.25;;;20.10;99.90;;;;;;5076386;28;20468;-64
2023/06/17 06:56:18;;;;;;;42.90;19.40;;;20.20;99.90;;;;;;5076475;28;20028;-64
2023/06/17 06:58:44;;;;;;;40.60;20.50;;;20.20;99.90;;;;;;5094441;28;20032;-64
2023/06/17 07:01:10;;;;;;;39.95;19.80;;;20.10;99.90;;;;;;5076508;28;20489;-63
2023/06/17 07:03:37;;;;;;;33.80;17.52;;;20.30;99.90;;;;;;5076397;28;20024;-63
2023/06/17 07:06:04;;;;;;;37.35;17.85;;;20.40;99.90;;;;;;5076366;28;20032;-63
2023/06/17 07:08:30;;;;;;;31.85;16.00;;;20.70;99.90;;;;;;5094449;28;20482;-63
2023/06/17 07:10:56;;;;;;;27.30;13.10;;;20.80;99.90;;;;;;5076107;28;20038;-63
2023/06/17 07:13:23;;;;;;;23.67;11.55;;;20.90;99.90;;;;;;5076194;28;20111;-63
2023/06/17 07:15:51;;;;;;;20.60;11.07;;;20.90;99.90;;;;;;5076289;28;20032;-64
2023/06/17 07:18:19;;;;;;;24.05;10.32;;;21.00;99.90;;;;;;5076276;28;20473;-63
2023/06/17 07:20:45;;;;;;;20.40;10.57;;;20.90;99.90;;;;;;5094328;28;20020;-64
2023/06/17 07:23:11;;;;;;;17.23;9.38;;;21.00;99.90;;;;;;5076088;28;20513;-64
2023/06/17 07:25:38;;;;;;;19.92;9.57;;;21.00;99.90;;;;;;5076099;28;20028;-64
2023/06/17 07:28:05;;;;;;;18.95;9.20;;;21.10;99.90;;;;;;5076178;28;20138;-64
2023/06/17 07:30:31;;;;;;;16.15;8.15;;;21.00;99.90;;;;;;5076177;28;20028;-64
2023/06/17 07:32:57;;;;;;;16.45;8.95;;;20.90;99.90;;;;;;5076138;28;20360;-64
2023/06/17 07:35:25;;;;;;;19.17;8.13;;;20.70;99.90;;;;;;5075823;28;20028;-64
2023/06/17 07:37:54;;;;;;;13.85;7.82;;;20.70;99.90;;;;;;5075774;28;20501;-63
2023/06/17 07:40:20;;;;;;;16.95;9.30;;;20.80;99.90;;;;;;5076097;28;20078;-64
2023/06/17 07:42:46;;;;;;;16.20;8.43;;;21.00;99.90;;;;;;5094161;28;20028;-63
2023/06/17 07:45:12;;;;;;;15.20;8.15;;;21.10;99.90;;;;;;5093999;28;20123;-64
2023/06/17 07:47:38;;;;;;;23.25;9.52;;;21.10;99.90;;;;;;5096888;28;20118;-64
2023/06/17 07:50:05;;;;;;;24.30;10.10;;;21.40;99.90;;;;;;5097868;28;20024;-64
2023/06/17 07:52:34;;;;;;;11.43;7.05;;;21.70;99.90;;;;;;5097953;28;20074;-63
2023/06/17 07:55:04;;;;;;;17.05;8.60;;;22.20;99.90;;;;;;5097767;28;20052;-64
2023/06/17 07:57:30;;;;;;;16.90;8.00;;;22.60;99.90;;;;;;5097920;28;20106;-64
2023/06/17 07:59:56;;;;;;;11.75;6.78;;;22.50;99.90;;;;;;5098084;28;20062;-64
2023/06/17 08:02:22;;;;;;;12.30;7.18;;;22.60;99.90;;;;;;5097618;28;20032;-64
2023/06/17 08:04:49;;;;;;;11.43;6.40;;;22.80;99.90;;;;;;5097677;28;20038;-64
2023/06/17 08:07:15;;;;;;;12.48;6.70;;;23.00;99.90;;;;;;5097715;28;20485;-64
2023/06/17 08:09:41;;;;;;;10.80;6.00;;;23.20;99.00;;;;;;5097394;28;20107;-64
2023/06/17 08:12:07;;;;;;;9.45;6.53;;;23.30;98.70;;;;;;5097569;28;20085;-64
2023/06/17 08:14:33;;;;;;;14.05;6.95;;;23.40;99.50;;;;;;5097630;28;20435;-64
2023/06/17 08:17:00;;;;;;;10.35;6.32;;;23.50;99.90;;;;;;5097521;28;20077;-64
2023/06/17 08:19:25;;;;;;;9.00;6.05;;;23.70;98.90;;;;;;5097327;28;20027;-65
2023/06/17 08:21:51;;;;;;;11.05;6.18;;;23.90;99.70;;;;;;5097468;28;20031;-64
2023/06/17 08:24:19;;;;;;;7.30;5.50;;;23.90;99.90;;;;;;5097337;28;20055;-65
2023/06/17 08:26:46;;;;;;;8.63;5.78;;;23.80;99.90;;;;;;5097308;28;20028;-65
2023/06/17 08:29:15;;;;;;;8.93;5.45;;;23.90;99.90;;;;;;5097195;28;20374;-64
2023/06/17 08:31:42;;;;;;;11.93;6.20;;;24.00;99.90;;;;;;5097103;28;20039;-64
2023/06/17 08:34:08;;;;;;;15.57;6.88;;;23.90;96.80;;;;;;5097141;28;20043;-64
2023/06/17 08:36:37;;;;;;;15.60;6.47;;;24.00;96.70;;;;;;5096836;28;20024;-65
2023/06/17 08:39:03;;;;;;;15.23;6.45;;;24.00;99.90;;;;;;5096928;28;20031;-64
2023/06/17 08:41:30;;;;;;;10.77;5.88;;;24.40;99.90;;;;;;5097120;28;20028;-65
2023/06/17 08:43:58;;;;;;;13.05;6.18;;;24.30;98.90;;;;;;5096844;28;20062;-65
2023/06/17 08:46:26;;;;;;;11.82;6.05;;;24.20;99.90;;;;;;5096660;28;20111;-65
2023/06/17 08:48:52;;;;;;;10.43;5.85;;;24.50;99.90;;;;;;5096837;28;20154;-65
2023/06/17 08:51:19;;;;;;;14.30;5.82;;;24.40;99.60;;;;;;5096850;28;20024;-64
2023/06/17 08:53:47;;;;;;;12.98;6.30;;;24.40;97.00;;;;;;5096717;28;20031;-64
2023/06/17 08:56:13;;;;;;;13.18;6.53;;;24.30;95.00;;;;;;5096658;28;20036;-64
2023/06/17 08:58:39;;;;;;;10.95;6.00;;;24.10;95.40;;;;;;5095770;28;20035;-65
2023/06/17 09:01:06;;;;;;;10.57;6.40;;;24.20;96.70;;;;;;5096588;28;20052;-64
2023/06/17 09:03:38;;;;;;;11.57;5.75;;;24.20;97.50;;;;;;5096633;28;20020;-64
2023/06/17 09:06:25;;;;;;;11.18;5.85;;;24.40;95.70;;;;;;5096533;28;20278;-65
2023/06/17 09:08:53;;;;;;;12.65;5.63;;;24.40;93.00;;;;;;5096614;28;20051;-64
2023/06/17 09:11:24;;;;;;;13.13;6.32;;;24.30;93.20;;;;;;5078125;28;20063;-64
2023/06/17 09:13:54;;;;;;;18.45;6.07;;;24.00;95.60;;;;;;5096346;28;20374;-64
2023/06/17 09:16:24;;;;;;;;;;;23.90;96.00;;;;;;5096883;28;20098;-64
2023/06/17 09:18:54;;;;;;;8.90;5.68;;;23.70;95.70;;;;;;5096352;28;19979;-64
2023/06/17 09:21:20;;;;;;;14.45;6.93;;;24.00;96.50;;;;;;5096223;28;20489;-64
2023/06/17 09:24:03;;;;;;;16.08;6.53;;;23.90;97.30;;;;;;5096293;28;20102;-64
2023/06/17 09:26:56;;;;;;;13.05;6.55;;;24.20;96.30;;;;;;5096210;28;20028;-64
2023/06/17 09:29:22;;;;;;;12.55;6.68;;;24.50;98.40;;;;;;5075162;28;20218;-64
2023/06/17 09:31:52;;;;;;;9.27;5.78;;;24.60;99.50;;;;;;5096177;28;20024;-64
2023/06/17 09:34:22;;;;;;;10.10;6.50;;;25.00;99.90;;;;;;5095925;28;20028;-64
2023/06/17 09:37:01;;;;;;;8.73;6.22;;;25.10;99.90;;;;;;5095783;28;20044;-64
2023/06/17 09:39:31;;;;;;;12.27;6.28;;;25.30;99.90;;;;;;5096058;28;20049;-64
2023/06/17 09:42:07;;;;;;;12.43;5.97;;;25.50;99.90;;;;;;5095794;28;20031;-64
2023/06/17 09:44:34;;;;;;;9.82;6.72;;;25.40;99.60;;;;;;5095856;28;20474;-64
2023/06/17 09:47:07;;;;;;;15.13;5.65;;;25.20;99.30;;;;;;5095748;28;20035;-64
2023/06/17 09:49:35;;;;;;;11.45;5.82;;;25.00;99.80;;;;;;5095676;28;20050;-64
2023/06/17 09:52:05;;;;;;;16.48;6.35;;;25.00;99.90;;;;;;5095859;28;20119;-64
2023/06/17 09:54:33;;;;;;;15.13;6.47;;;24.80;99.90;;;;;;5095606;28;20051;-64
2023/06/17 09:57:01;;;;;;;11.25;6.03;;;24.70;99.90;;;;;;5095616;28;20480;-64
2023/06/17 09:59:28;;;;;;;9.05;5.45;;;24.60;99.70;;;;;;5095473;28;20024;-64
2023/06/17 10:01:54;;;;;;;8.18;5.20;;;24.40;99.90;;;;;;5095451;28;20032;-64
2023/06/17 10:04:21;;;;;;;9.85;5.32;;;24.20;99.70;;;;;;5095662;28;20097;-64
2023/06/17 10:06:49;;;;;;;8.65;4.75;;;24.10;99.00;;;;;;5095426;28;20424;-64
2023/06/17 10:09:16;;;;;;;7.78;4.82;;;24.10;98.20;;;;;;5095147;28;20473;-64
2023/06/17 10:11:46;;;;;;;14.13;5.70;;;24.00;98.50;;;;;;5095179;28;20039;-64
2023/06/17 10:14:18;;;;;;;6.50;5.15;;;24.20;97.20;;;;;;5095184;28;20036;-64
2023/06/17 10:16:47;;;;;;;9.73;4.50;;;24.40;97.80;;;;;;5095175;28;20477;-64
2023/06/17 10:19:19;;;;;;;9.38;5.25;;;24.50;95.20;;;;;;5095176;28;20032;-64
2023/06/17 10:21:48;;;;;;;8.18;5.07;;;24.30;97.80;;;;;;5095384;28;20481;-64
2023/06/17 10:24:16;;;;;;;7.95;5.25;;;24.50;97.40;;;;;;5095018;28;20036;-64
2023/06/17 10:26:42;;;;;;;7.53;5.13;;;24.70;96.40;;;;;;5095000;28;20442;-64
2023/06/17 10:29:10;;;;;;;16.02;5.55;;;24.80;94.20;;;;;;5095085;28;20085;-64
2023/06/17 10:31:39;;;;;;;10.63;6.00;;;24.80;97.90;;;;;;5094926;28;20032;-64
2023/06/17 10:34:10;;;;;;;11.02;5.88;;;24.80;97.00;;;;;;5094963;28;20031;-64
2023/06/17 10:36:36;;;;;;;7.25;4.55;;;25.10;99.90;;;;;;5094590;28;20427;-64
2023/06/17 10:39:07;;;;;;;11.10;5.07;;;25.20;99.90;;;;;;5094645;28;20555;-64
2023/06/17 10:41:38;;;;;;;;;;;25.80;97.20;;;;;;5095341;28;20028;-64
2023/06/17 10:44:27;;;;;;;15.98;6.18;;;26.10;95.60;;;;;;5094948;28;19957;-64
2023/06/17 10:46:56;;;;;;;13.25;5.75;;;26.60;99.30;;;;;;5094849;28;20031;-65
2023/06/17 10:49:23;;;;;;;10.13;5.67;;;27.00;99.90;;;;;;5094730;28;20032;-65
2023/06/17 10:51:58;;;;;;;7.85;4.50;;;27.30;97.60;;;;;;5094738;28;20477;-65
2023/06/17 10:54:29;;;;;;;6.75;4.68;;;27.60;98.00;;;;;;5094531;28;20119;-65
2023/06/17 10:56:55;;;;;;;6.03;5.25;;;27.60;99.90;;;;;;5094487;28;20035;-64
2023/06/17 10:59:28;;;;;;;6.35;4.70;;;27.90;96.90;;;;;;5094536;28;20370;-65
2023/06/17 11:02:01;;;;;;;10.93;5.45;;;28.00;99.90;;;;;;5094358;28;20029;-65
2023/06/17 11:04:30;;;;;;;8.55;5.30;;;27.60;97.90;;;;;;5094561;28;20024;-65
2023/06/17 11:07:00;;;;;;;11.80;5.50;;;27.30;99.90;;;;;;5094449;28;20031;-65
2023/06/17 11:09:27;;;;;;;11.77;4.93;;;26.90;99.90;;;;;;5094274;28;20516;-65
2023/06/17 11:11:54;;;;;;;8.00;4.65;;;26.70;99.90;;;;;;5094599;28;20024;-64
2023/06/17 11:14:27;;;;;;;12.15;5.57;;;26.30;99.90;;;;;;5094431;28;20050;-64
2023/06/17 11:16:53;;;;;;;14.65;6.53;;;26.20;99.90;;;;;;5094317;28;20469;-64
2023/06/17 11:19:20;;;;;;;23.10;6.70;;;26.00;99.90;;;;;;5094767;28;20174;-64
2023/06/17 11:21:51;;;;;;;16.50;7.20;;;25.70;99.90;;;;;;5095862;28;20023;-64
2023/06/17 11:24:17;;;;;;;13.57;5.78;;;25.40;99.90;;;;;;5098626;28;20032;-64
2023/06/17 11:26:43;;;;;;;11.63;6.53;;;25.60;98.70;;;;;;5098519;28;20137;-65
2023/06/17 11:29:09;;;;;;;17.85;8.10;;;25.80;98.30;;;;;;5098265;28;20093;-64
2023/06/17 11:31:40;;;;;;;12.32;6.32;;;26.20;99.90;;;;;;5098475;28;20028;-65
2023/06/17 11:34:07;;;;;;;12.05;5.82;;;26.30;99.90;;;;;;5098371;28;20032;-65
2023/06/17 11:36:35;;;;;;;9.80;5.85;;;26.50;99.90;;;;;;5097930;28;20111;-65
2023/06/17 11:39:02;;;;;;;10.70;5.63;;;26.70;99.90;;;;;;5098240;28;20025;-65
2023/06/17 11:41:28;;;;;;;12.40;5.80;;;27.00;99.30;;;;;;5098034;28;20416;-65
2023/06/17 11:43:54;;;;;;;7.20;4.80;;;27.00;98.60;;;;;;5098095;28;20024;-65
2023/06/17 11:46:25;;;;;;;9.57;5.32;;;27.40;96.60;;;;;;5098095;28;20055;-65
2023/06/17 11:48:51;;;;;;;9.23;4.85;;;27.40;92.40;;;;;;5097968;28;20035;-64
2023/06/17 11:51:18;;;;;;;7.90;4.72;;;27.10;90.50;;;;;;5097981;28;20035;-64
2023/06/17 11:53:48;;;;;;;8.45;5.10;;;26.70;92.00;;;;;;5098025;28;20031;-65
2023/06/17 11:56:20;;;;;;;8.60;4.68;;;26.10;91.70;;;;;;5097758;28;20036;-64
2023/06/17 11:58:46;;;;;;;12.90;5.38;;;26.00;92.20;;;;;;5097791;28;20025;-64
2023/06/17 12:01:13;;;;;;;10.07;5.00;;;25.70;95.00;;;;;;5097801;28;20461;-64
2023/06/17 12:03:45;;;;;;;7.40;4.68;;;25.80;92.40;;;;;;5097683;28;20032;-65
2023/06/17 12:06:19;;;;;;;10.82;5.25;;;25.80;93.80;;;;;;5097707;28;20034;-64
2023/06/17 12:08:54;;;;;;;8.73;4.75;;;26.20;95.20;;;;;;5097724;28;20024;-64
2023/06/17 12:11:25;;;;;;;8.57;5.15;;;25.90;93.60;;;;;;5097427;28;20083;-64
2023/06/17 12:13:52;;;;;;;6.47;4.72;;;26.30;91.50;;;;;;5097420;28;20039;-64
2023/06/17 12:16:27;;;;;;;7.50;4.68;;;26.30;93.60;;;;;;5097539;28;20032;-64
2023/06/17 12:18:53;;;;;;;6.03;4.53;;;26.00;93.50;;;;;;5097249;28;20103;-64
2023/06/17 12:21:20;;;;;;;8.25;4.82;;;25.80;91.00;;;;;;5097495;28;20056;-64
2023/06/17 12:23:53;;;;;;;14.70;5.45;;;25.60;94.40;;;;;;5097405;28;20020;-64
2023/06/17 12:26:25;;;;;;;10.23;5.38;;;25.60;94.90;;;;;;5097242;28;20028;-64
2023/06/17 12:28:55;;;;;;;5.10;4.22;;;25.80;93.00;;;;;;5097369;28;20081;-64
2023/06/17 12:31:22;;;;;;;6.67;4.70;;;25.70;93.20;;;;;;5097259;28;20039;-64
2023/06/17 12:33:49;;;;;;;11.57;5.32;;;25.60;95.50;;;;;;5097181;28;20260;-64